Virgilina, VA (24598)

11:27 AM EDT del 01 Ottobre 2016 (GMT -0400)
North Main Street | | Change Station
Avvisi attivi: Flood Warning

Alt. 489 ft 36.73 °N, 78.91 °W | Updated 2 minutes ago

Clear
Sereno
73.1 °F
Sembra 73 °F
N
1.0
Vento Variabile Vento da Nord
Gusts 3.0 mph

Oggi
Massima -- | Minima -- °F
--% Possibilità di precip.
Ieri
Massima -- | Minima -- °F
Precip. -- in
Pressione 30.12 in
Visibilità 10.0 miglia
Nuvole Sereno
Indice di calore 73 °F
Punto di rugiada 67 °F
Umidità 80%
Piovosità 0.00 in
Spessore del manto nevoso Non disponibile.
7:10 AM 6:57 PM
Luna nuova, 0% visible
METAR KTDF 011505Z AUTO 19004KT 10SM CLR 21/16 A3012 RMK AO2
Pressione 30.12 in
Visibilità 10.0 miglia
Nuvole Sereno
Indice di calore 73 °F
Punto di rugiada 67 °F
Umidità 80%
Piovosità 0.00 in
Spessore del manto nevoso Non disponibile.
7:10 AM 6:57 PM
Luna nuova, 0% visible
METAR KTDF 011505Z AUTO 19004KT 10SM CLR 21/16 A3012 RMK AO2

10-Day Weather Forecast

Almanac

Astronomia

Oct. 01, 2016 Alba Tramonto
Ora attuale
Crepuscolo civile
Crepuscolo nautico
Crepuscolo astronomico
Luna
Estensione della luce visibile
Lunghezza del giorno
Tomorrow will be .
, % of the Moon is Illuminated

Gli estremi di oggi

State Highs State Lows

Community

WunderPhotos

Upload Photos

1,942,955 foto caricate!

WunderBlog® & News

Nearby

Qualità dell'aria

  Qualità dell'aria Indice AQ Inquinante
Not available.

Profondità neve

Stazione Profondità Altitudine

Attività sismica

Città  Distanza Mag. Data & Ora
Minimo Magnitudo Mostrato è 2.5.

Temperature delle acque costiere

Località Temperatura

Stations

Stazioni meteo nelle vicinanze

Ubicazione della stazione Temp. Raffreddamento del vento Punto di rugiada Umidità Vento Precip. Alt. Aggiornato Tipo
                   

Watches & Warnings

Flood Warning
Issued: 04:37 EDT Oct. 1, 2016 – National Weather Service

The Flood Warning continues for
the Roanoke River at Randolph.
* From this evening until Monday morning
* at 03am Saturday the stage was 17.1 feet.

* Flood stage is 21.0 feet.
* Forecast to rise above flood stage by this evening and continue to
rise to near 22.6 feet by Sunday morning. The river will fall
below flood stage by Sunday evening.
* Impact... at 22.0 feet... River Road (route 607) in Charlotte County
and Black Walnut Road in Halifax County are closed by flooding.
* Flood history... this crest compares to a previous crest of 23.2
feet on may 7 2016.


Lat... Lon 3695 7885 3703 7882 3702 7872 3690 7866
          3680 7863 3680 7870